createdAt,value
2018-08-03T00:00:40.261Z,26.60
2018-08-03T00:03:09.346Z,26.60
2018-08-03T00:05:38.328Z,26.50
2018-08-03T00:08:07.213Z,26.50
2018-08-03T00:10:36.115Z,26.40
2018-08-03T00:13:05.132Z,26.40
2018-08-03T00:15:34.217Z,26.40
2018-08-03T00:18:03.093Z,26.40
2018-08-03T00:20:31.936Z,26.30
2018-08-03T00:23:00.933Z,26.30
2018-08-03T00:25:29.813Z,26.20
2018-08-03T00:27:58.713Z,26.20
2018-08-03T00:30:27.532Z,26.10
2018-08-03T00:32:56.364Z,26.10
2018-08-03T00:35:25.227Z,26.10
2018-08-03T00:37:54.156Z,26.10
2018-08-03T00:40:23.027Z,26.00
2018-08-03T00:42:51.890Z,26.00
2018-08-03T00:45:20.738Z,26.00
2018-08-03T00:47:49.583Z,25.90
2018-08-03T00:50:18.476Z,25.90
2018-08-03T00:52:47.380Z,25.90
2018-08-03T00:55:16.257Z,25.90
2018-08-03T00:57:45.163Z,25.80
2018-08-03T01:00:14.129Z,25.80
2018-08-03T01:02:43.068Z,25.80
2018-08-03T01:05:11.916Z,25.80
2018-08-03T01:07:40.778Z,25.70
2018-08-03T01:10:09.631Z,25.70
2018-08-03T01:12:38.581Z,25.70
2018-08-03T01:15:07.416Z,25.70
2018-08-03T01:17:36.284Z,25.60
2018-08-03T01:20:05.668Z,25.60
2018-08-03T01:22:34.525Z,25.50
2018-08-03T01:25:03.359Z,25.60
2018-08-03T01:27:32.223Z,25.50
2018-08-03T01:30:01.052Z,25.50
2018-08-03T01:32:29.883Z,25.50
2018-08-03T01:34:58.748Z,25.40
2018-08-03T01:37:27.648Z,25.40
2018-08-03T01:39:56.638Z,25.40
2018-08-03T01:42:25.501Z,25.30
2018-08-03T01:44:54.474Z,25.30
2018-08-03T01:47:23.390Z,25.30
2018-08-03T01:49:52.180Z,25.30
2018-08-03T01:52:21.088Z,25.30
2018-08-03T01:54:49.928Z,25.20
2018-08-03T01:57:18.803Z,25.20
2018-08-03T01:59:47.613Z,25.10
2018-08-03T02:02:16.457Z,25.10
2018-08-03T02:04:45.270Z,25.10
2018-08-03T02:07:14.164Z,25.10
2018-08-03T02:09:43.008Z,25.00
2018-08-03T02:12:11.903Z,25.00
2018-08-03T02:14:40.736Z,25.00
2018-08-03T02:17:09.580Z,25.00
2018-08-03T02:19:38.466Z,24.90
2018-08-03T02:22:07.324Z,24.90
2018-08-03T02:24:36.185Z,24.90
2018-08-03T02:27:05.048Z,24.90
2018-08-03T02:29:33.900Z,24.80
2018-08-03T02:32:02.853Z,24.80
2018-08-03T02:34:31.717Z,24.80
2018-08-03T02:39:29.051Z,24.70
2018-08-03T02:41:57.939Z,24.70
2018-08-03T02:44:26.824Z,24.70
2018-08-03T02:46:55.632Z,24.60
2018-08-03T02:49:24.507Z,24.60
2018-08-03T02:51:53.352Z,24.60
2018-08-03T02:54:22.239Z,24.60
2018-08-03T02:56:51.187Z,24.50
2018-08-03T02:59:20.130Z,24.50
2018-08-03T03:01:49.120Z,24.50
2018-08-03T03:04:18.110Z,24.50
2018-08-03T03:06:47.008Z,24.40
2018-08-03T03:09:15.856Z,24.40
2018-08-03T03:11:44.764Z,24.40
2018-08-03T03:14:13.675Z,24.40
2018-08-03T03:16:42.517Z,24.30
2018-08-03T03:19:11.330Z,24.30
2018-08-03T03:21:40.180Z,24.30
2018-08-03T03:24:09.072Z,24.30
2018-08-03T03:26:38.042Z,24.20
2018-08-03T03:29:06.917Z,24.20
2018-08-03T03:31:35.771Z,24.20
2018-08-03T03:34:04.738Z,24.10
2018-08-03T03:36:33.596Z,24.10
2018-08-03T03:39:02.551Z,24.10
2018-08-03T03:41:31.368Z,24.00
2018-08-03T03:44:00.235Z,24.00
2018-08-03T03:46:29.099Z,24.00
2018-08-03T03:48:57.964Z,24.00
2018-08-03T03:51:26.830Z,23.90
2018-08-03T03:53:55.842Z,23.90
2018-08-03T03:56:24.709Z,23.90
2018-08-03T03:58:53.566Z,23.90
2018-08-03T04:01:22.464Z,23.90
2018-08-03T04:03:51.293Z,23.80
2018-08-03T04:06:20.170Z,23.80
2018-08-03T04:08:49.010Z,23.80
2018-08-03T04:11:17.848Z,23.70
2018-08-03T04:13:46.684Z,23.70
2018-08-03T04:16:15.515Z,23.70
2018-08-03T04:18:44.459Z,23.70
2018-08-03T04:21:13.325Z,23.60
2018-08-03T04:23:42.321Z,23.60
2018-08-03T04:26:11.218Z,23.60
2018-08-03T04:28:40.158Z,23.60
2018-08-03T04:31:08.992Z,23.60
2018-08-03T04:33:37.862Z,23.60
2018-08-03T04:36:06.739Z,23.50
2018-08-03T04:38:35.554Z,23.50
2018-08-03T04:41:05.363Z,23.50
2018-08-03T04:43:34.228Z,23.50
2018-08-03T04:46:04.024Z,23.50
2018-08-03T04:48:32.924Z,23.50
2018-08-03T04:51:01.737Z,23.50
2018-08-03T04:53:30.631Z,23.50
2018-08-03T04:55:59.599Z,23.50
2018-08-03T04:58:28.427Z,23.50
2018-08-03T05:00:57.312Z,23.60
2018-08-03T05:03:26.198Z,23.70
2018-08-03T05:05:55.072Z,23.70
2018-08-03T05:08:23.900Z,23.90
2018-08-03T05:10:52.846Z,24.00
2018-08-03T05:13:21.783Z,24.10
2018-08-03T05:15:50.637Z,24.20
2018-08-03T05:18:19.586Z,24.30
2018-08-03T05:20:48.480Z,24.40
2018-08-03T05:23:17.299Z,24.60
2018-08-03T05:25:46.203Z,24.70
2018-08-03T05:28:15.050Z,24.80
2018-08-03T05:30:43.891Z,25.00
2018-08-03T05:33:12.711Z,25.10
2018-08-03T05:35:41.612Z,25.30
2018-08-03T05:38:10.430Z,25.40
2018-08-03T05:40:39.323Z,25.50
2018-08-03T05:43:08.133Z,25.70
2018-08-03T05:45:37.079Z,25.90
2018-08-03T05:48:05.907Z,26.00
2018-08-03T05:53:03.341Z,26.30
2018-08-03T05:55:32.266Z,26.50
2018-08-03T05:58:01.224Z,26.70
2018-08-03T06:00:30.121Z,26.80
2018-08-03T06:02:59.013Z,27.00
2018-08-03T06:05:27.874Z,27.10
2018-08-03T06:07:56.724Z,27.30
2018-08-03T06:10:25.795Z,27.50
2018-08-03T06:12:55.264Z,27.60
2018-08-03T06:15:24.167Z,27.80
2018-08-03T06:17:53.163Z,27.90
2018-08-03T06:20:22.072Z,28.10
2018-08-03T06:22:50.932Z,28.30
2018-08-03T06:25:19.831Z,28.50
2018-08-03T06:27:48.704Z,28.70
2018-08-03T06:30:17.575Z,28.80
2018-08-03T06:32:46.483Z,29.00
2018-08-03T06:35:15.432Z,29.10
2018-08-03T06:37:44.401Z,29.30
2018-08-03T06:40:13.372Z,29.50
2018-08-03T06:42:42.360Z,29.60
2018-08-03T06:45:11.382Z,29.80
2018-08-03T06:47:40.290Z,29.90
2018-08-03T06:50:09.140Z,30.00
2018-08-03T06:52:37.996Z,30.10
2018-08-03T06:57:35.422Z,30.20
2018-08-03T07:00:05.568Z,30.30
2018-08-03T07:02:34.451Z,30.30
2018-08-03T07:05:03.425Z,30.30
2018-08-03T07:07:32.459Z,30.40
2018-08-03T07:10:01.322Z,30.50
2018-08-03T07:12:30.183Z,30.60
2018-08-03T07:14:59.127Z,30.60
2018-08-03T07:17:27.941Z,30.70
2018-08-03T07:19:56.820Z,30.80
2018-08-03T07:22:25.723Z,31.00
2018-08-03T07:24:56.033Z,31.10
2018-08-03T07:27:24.882Z,31.30
2018-08-03T07:29:53.745Z,31.40
2018-08-03T07:32:23.448Z,31.50
2018-08-03T07:34:52.426Z,31.70
2018-08-03T07:37:21.265Z,31.80
2018-08-03T07:39:50.113Z,31.90
2018-08-03T07:42:19.089Z,32.10
2018-08-03T07:44:48.026Z,32.20
2018-08-03T07:47:16.965Z,32.30
2018-08-03T07:49:45.870Z,32.50
2018-08-03T07:52:14.803Z,32.60
2018-08-03T07:54:43.728Z,32.70
2018-08-03T07:57:12.617Z,32.80
2018-08-03T08:02:10.083Z,33.00
2018-08-03T08:04:38.975Z,33.20
2018-08-03T08:07:07.864Z,33.30
2018-08-03T08:09:36.766Z,33.40
2018-08-03T08:12:05.614Z,33.60
2018-08-03T08:14:34.443Z,33.70
2018-08-03T08:17:03.400Z,33.90
2018-08-03T08:19:32.284Z,34.00
2018-08-03T08:22:01.146Z,34.10
2018-08-03T08:24:30.948Z,34.30
2018-08-03T08:26:59.835Z,34.40
2018-08-03T08:29:28.757Z,34.50
2018-08-03T08:31:58.099Z,34.70
2018-08-03T08:34:26.987Z,34.80
2018-08-03T08:36:55.976Z,35.00
2018-08-03T08:39:24.845Z,35.10
2018-08-03T08:44:22.634Z,35.40
2018-08-03T08:49:20.057Z,35.70
2018-08-03T08:51:48.862Z,35.90
2018-08-03T08:54:17.763Z,36.00
2018-08-03T08:56:46.609Z,36.20
2018-08-03T08:59:15.482Z,36.40
2018-08-03T09:01:44.327Z,36.50
2018-08-03T09:04:13.204Z,36.70
2018-08-03T09:06:42.168Z,36.80
2018-08-03T09:09:11.752Z,37.00
2018-08-03T09:11:40.656Z,37.10
2018-08-03T09:14:09.524Z,37.30
2018-08-03T09:16:39.516Z,37.50
2018-08-03T09:19:08.533Z,37.60
2018-08-03T09:21:37.499Z,37.80
2018-08-03T09:24:06.454Z,37.90
2018-08-03T09:26:36.757Z,38.00
2018-08-03T09:29:07.072Z,38.30
2018-08-03T09:31:36.993Z,38.40
2018-08-03T09:34:06.297Z,38.50
2018-08-03T09:39:06.936Z,38.80
2018-08-03T09:41:35.795Z,38.90
2018-08-03T09:44:05.061Z,39.00
2018-08-03T09:46:34.213Z,39.10
2018-08-03T09:51:31.801Z,39.40
2018-08-03T09:54:00.648Z,39.50
2018-08-03T09:56:29.630Z,39.70
2018-08-03T09:58:58.565Z,39.80
2018-08-03T10:01:27.412Z,40.00
2018-08-03T10:03:56.537Z,40.10
2018-08-03T10:06:27.109Z,40.20
2018-08-03T10:08:56.927Z,40.40
2018-08-03T10:11:26.343Z,40.50
2018-08-03T10:13:56.170Z,40.70
2018-08-03T10:16:25.182Z,40.70
2018-08-03T10:18:54.123Z,40.80
2018-08-03T10:21:23.012Z,40.90
2018-08-03T10:23:51.991Z,41.00
2018-08-03T10:26:20.894Z,41.10
2018-08-03T10:28:49.748Z,41.20
2018-08-03T10:31:18.618Z,41.30
2018-08-03T10:36:16.008Z,41.60
2018-08-03T10:38:44.922Z,41.70
2018-08-03T10:41:13.964Z,41.80
2018-08-03T10:43:42.866Z,41.90
2018-08-03T10:46:12.140Z,42.00
2018-08-03T10:48:41.038Z,42.10
2018-08-03T10:51:09.856Z,42.20
2018-08-03T10:53:39.443Z,42.30
2018-08-03T10:56:08.344Z,42.30
2018-08-03T10:58:37.199Z,42.50
2018-08-03T11:01:07.053Z,42.50
2018-08-03T11:03:36.073Z,42.50
2018-08-03T11:06:04.938Z,42.60
2018-08-03T11:08:33.839Z,42.70
2018-08-03T11:11:02.804Z,42.80
2018-08-03T11:13:31.853Z,42.90
2018-08-03T11:16:00.741Z,43.00
2018-08-03T11:18:30.285Z,43.10
2018-08-03T11:20:59.533Z,43.20
2018-08-03T11:25:57.912Z,43.40
2018-08-03T11:28:28.916Z,43.40
2018-08-03T11:30:58.381Z,43.40
2018-08-03T11:33:27.532Z,43.50
2018-08-03T11:35:57.037Z,43.60
2018-08-03T11:38:25.886Z,43.60
2018-08-03T11:40:54.774Z,43.60
2018-08-03T11:43:23.874Z,43.60
2018-08-03T11:45:52.740Z,43.60
2018-08-03T11:51:53.787Z,43.60
2018-08-03T11:54:22.650Z,43.70
2018-08-03T11:56:51.545Z,43.70
2018-08-03T11:59:20.435Z,43.70
2018-08-03T12:01:49.306Z,43.70
2018-08-03T12:04:18.164Z,43.70
2018-08-03T12:06:47.012Z,43.70
2018-08-03T12:09:15.844Z,43.70
2018-08-03T12:11:44.793Z,43.80
2018-08-03T12:14:13.735Z,43.90
2018-08-03T12:16:42.686Z,43.90
2018-08-03T12:19:11.610Z,44.00
2018-08-03T12:21:40.576Z,44.10
2018-08-03T12:24:09.451Z,44.10
2018-08-03T12:26:38.267Z,44.20
2018-08-03T12:29:07.142Z,44.20
2018-08-03T12:31:36.066Z,44.20
2018-08-03T12:34:04.889Z,44.30
2018-08-03T12:36:33.745Z,44.40
2018-08-03T12:39:02.588Z,44.40
2018-08-03T12:41:31.445Z,44.50
2018-08-03T12:44:00.305Z,44.50
2018-08-03T12:46:29.161Z,44.60
2018-08-03T12:48:58.111Z,44.70
2018-08-03T12:51:27.006Z,44.80
2018-08-03T12:53:55.885Z,44.80
2018-08-03T12:56:25.168Z,44.90
2018-08-03T12:58:54.069Z,44.90
2018-08-03T13:01:23.095Z,45.00
2018-08-03T13:03:52.024Z,45.00
2018-08-03T13:06:20.845Z,45.10
2018-08-03T13:08:49.681Z,45.10
2018-08-03T13:11:19.652Z,45.20
2018-08-03T13:13:48.507Z,45.30
2018-08-03T13:16:17.389Z,45.40
2018-08-03T13:18:46.422Z,45.40
2018-08-03T13:21:27.302Z,45.50
2018-08-03T13:23:57.736Z,45.60
2018-08-03T13:26:27.247Z,45.60
2018-08-03T13:28:56.569Z,45.60
2018-08-03T13:31:26.468Z,45.60
2018-08-03T13:33:55.343Z,45.70
2018-08-03T13:36:25.423Z,45.70
2018-08-03T13:38:54.254Z,45.70
2018-08-03T13:41:23.147Z,45.80
2018-08-03T13:43:51.975Z,45.80
2018-08-03T13:46:20.812Z,45.80
2018-08-03T13:48:51.723Z,45.80
2018-08-03T13:51:21.173Z,45.80
2018-08-03T13:53:50.017Z,45.80
2018-08-03T13:56:19.487Z,45.80
2018-08-03T13:58:50.788Z,45.90
2018-08-03T14:01:31.142Z,45.90
2018-08-03T14:04:00.026Z,45.90
2018-08-03T14:06:28.803Z,45.90
2018-08-03T14:08:57.671Z,45.90
2018-08-03T14:11:26.998Z,45.90
2018-08-03T14:13:56.351Z,46.00
2018-08-03T14:16:26.127Z,45.90
2018-08-03T14:18:55.056Z,46.00
2018-08-03T14:21:23.933Z,46.00
2018-08-03T14:23:53.795Z,45.90
2018-08-03T14:26:22.740Z,45.90
2018-08-03T14:28:51.603Z,45.90
2018-08-03T14:31:20.463Z,45.80
2018-08-03T14:33:49.326Z,45.80
2018-08-03T14:36:18.168Z,45.80
2018-08-03T14:38:47.040Z,45.80
2018-08-03T14:41:15.948Z,45.80
2018-08-03T14:43:44.721Z,45.80
2018-08-03T14:46:13.558Z,45.80
2018-08-03T14:48:42.411Z,45.80
2018-08-03T14:51:11.363Z,45.80
2018-08-03T14:53:40.300Z,45.70
2018-08-03T14:56:09.216Z,45.60
2018-08-03T14:58:38.089Z,45.60
2018-08-03T15:01:16.683Z,45.50
2018-08-03T15:03:46.636Z,45.40
2018-08-03T15:06:15.543Z,45.30
2018-08-03T15:08:44.433Z,45.10
2018-08-03T15:11:13.351Z,45.00
2018-08-03T15:13:42.164Z,45.00
2018-08-03T15:16:11.032Z,44.90
2018-08-03T15:18:39.885Z,44.80
2018-08-03T15:21:08.741Z,44.60
2018-08-03T15:23:37.670Z,44.60
2018-08-03T15:26:07.035Z,44.50
2018-08-03T15:28:36.067Z,44.40
2018-08-03T15:31:05.360Z,44.40
2018-08-03T15:33:34.222Z,44.30
2018-08-03T15:36:04.079Z,44.20
2018-08-03T15:38:33.109Z,44.20
2018-08-03T15:41:02.072Z,44.20
2018-08-03T15:43:30.909Z,44.10
2018-08-03T15:45:59.796Z,44.10
2018-08-03T15:48:28.644Z,44.00
2018-08-03T15:50:57.574Z,44.00
2018-08-03T15:53:26.505Z,44.00
2018-08-03T15:55:55.446Z,43.90
2018-08-03T15:58:24.296Z,43.90
2018-08-03T16:00:53.186Z,43.80
2018-08-03T16:03:22.096Z,43.80
2018-08-03T16:05:50.980Z,43.70
2018-08-03T16:08:19.943Z,43.70
2018-08-03T16:10:48.810Z,43.70
2018-08-03T16:13:17.648Z,43.60
2018-08-03T16:15:46.635Z,43.50
2018-08-03T16:18:15.455Z,43.40
2018-08-03T16:20:44.315Z,43.30
2018-08-03T16:23:13.201Z,43.30
2018-08-03T16:25:42.230Z,43.20
2018-08-03T16:28:11.067Z,43.10
2018-08-03T16:30:40.584Z,43.10
2018-08-03T16:33:09.435Z,43.00
2018-08-03T16:35:38.911Z,42.80
2018-08-03T16:38:07.945Z,42.80
2018-08-03T16:40:37.164Z,42.70
2018-08-03T16:43:06.072Z,42.60
2018-08-03T16:45:34.964Z,42.60
2018-08-03T16:48:04.461Z,42.50
2018-08-03T16:50:34.749Z,42.40
2018-08-03T16:53:04.505Z,42.30
2018-08-03T16:55:34.405Z,42.20
2018-08-03T16:58:03.291Z,42.20
2018-08-03T17:00:32.232Z,42.10
2018-08-03T17:03:01.787Z,42.10
2018-08-03T17:05:30.620Z,41.90
2018-08-03T17:07:59.508Z,41.90
2018-08-03T17:10:28.427Z,41.80
2018-08-03T17:12:57.409Z,41.80
2018-08-03T17:15:26.272Z,41.70
2018-08-03T17:17:55.148Z,41.60
2018-08-03T17:20:25.033Z,41.50
2018-08-03T17:22:53.878Z,41.40
2018-08-03T17:25:22.766Z,41.30
2018-08-03T17:27:54.221Z,41.20
2018-08-03T17:30:23.113Z,41.10
2018-08-03T17:32:52.023Z,41.00
2018-08-03T17:35:21.222Z,40.90
2018-08-03T17:37:50.135Z,40.80
2018-08-03T17:40:19.647Z,40.60
2018-08-03T17:42:48.544Z,40.50
2018-08-03T17:45:17.358Z,40.40
2018-08-03T17:47:46.209Z,40.30
2018-08-03T17:50:15.104Z,40.20
2018-08-03T17:52:43.983Z,40.10
2018-08-03T17:55:12.999Z,40.00
2018-08-03T17:57:41.935Z,39.90
2018-08-03T18:00:10.994Z,39.80
2018-08-03T18:02:40.004Z,39.80
2018-08-03T18:05:08.858Z,39.60
2018-08-03T18:07:37.842Z,39.50
2018-08-03T18:10:08.083Z,39.40
2018-08-03T18:12:37.584Z,39.30
2018-08-03T18:15:07.188Z,39.20
2018-08-03T18:17:36.078Z,39.10
2018-08-03T18:20:05.464Z,39.00
2018-08-03T18:22:34.348Z,38.90
2018-08-03T18:25:03.674Z,38.70
2018-08-03T18:27:32.633Z,38.60
2018-08-03T18:30:01.588Z,38.50
2018-08-03T18:32:30.552Z,38.30
2018-08-03T18:34:59.468Z,38.20
2018-08-03T18:37:28.443Z,38.10
2018-08-03T18:39:57.410Z,38.00
2018-08-03T18:42:26.627Z,37.80
2018-08-03T18:44:56.425Z,37.80
2018-08-03T18:47:25.708Z,37.60
2018-08-03T18:49:54.630Z,37.50
2018-08-03T18:52:23.522Z,37.40
2018-08-03T18:54:52.700Z,37.30
2018-08-03T18:57:21.572Z,37.10
2018-08-03T18:59:51.001Z,37.10
2018-08-03T19:02:20.142Z,36.90
2018-08-03T19:04:49.182Z,36.80
2018-08-03T19:07:18.125Z,36.60
2018-08-03T19:09:46.981Z,36.50
2018-08-03T19:12:15.846Z,36.40
2018-08-03T19:17:13.495Z,36.10
2018-08-03T19:19:42.510Z,36.00
2018-08-03T19:22:11.457Z,35.90
2018-08-03T19:24:41.851Z,35.70
2018-08-03T19:27:10.783Z,35.60
2018-08-03T19:29:39.614Z,35.40
2018-08-03T19:32:08.463Z,35.30
2018-08-03T19:34:38.335Z,35.20
2018-08-03T19:37:07.309Z,35.00
2018-08-03T19:39:36.196Z,34.90
2018-08-03T19:42:05.085Z,34.70
2018-08-03T19:44:33.947Z,34.60
2018-08-03T19:47:02.823Z,34.40
2018-08-03T19:52:00.315Z,34.20
2018-08-03T19:54:29.164Z,34.10
2018-08-03T19:56:58.133Z,33.90
2018-08-03T19:59:27.130Z,33.90
2018-08-03T20:01:55.975Z,33.70
2018-08-03T20:04:24.812Z,33.60
2018-08-03T20:06:53.749Z,33.50
2018-08-03T20:09:22.541Z,33.30
2018-08-03T20:11:51.397Z,33.20
2018-08-03T20:14:20.227Z,33.10
2018-08-03T20:16:49.112Z,32.90
2018-08-03T20:19:17.959Z,32.80
2018-08-03T20:21:46.921Z,32.60
2018-08-03T20:24:15.759Z,32.50
2018-08-03T20:26:44.924Z,32.50
2018-08-03T20:29:13.787Z,32.30
2018-08-03T20:31:42.763Z,32.30
2018-08-03T20:34:11.666Z,32.10
2018-08-03T20:36:40.577Z,32.00
2018-08-03T20:39:10.183Z,31.90
2018-08-03T20:41:39.329Z,31.80
2018-08-03T20:44:08.275Z,31.80
2018-08-03T20:46:37.184Z,31.70
2018-08-03T20:49:06.288Z,31.60
2018-08-03T20:51:35.228Z,31.50
2018-08-03T20:56:33.044Z,31.30
2018-08-03T20:59:01.958Z,31.30
2018-08-03T21:01:30.850Z,31.20
2018-08-03T21:04:00.197Z,31.10
2018-08-03T21:06:29.075Z,31.00
2018-08-03T21:08:57.941Z,30.90
2018-08-03T21:11:26.817Z,30.80
2018-08-03T21:13:55.684Z,30.80
2018-08-03T21:16:24.589Z,30.70
2018-08-03T21:18:53.467Z,30.60
2018-08-03T21:21:22.336Z,30.50
2018-08-03T21:23:51.236Z,30.40
2018-08-03T21:26:20.094Z,30.30
2018-08-03T21:28:49.581Z,30.20
2018-08-03T21:31:18.529Z,30.10
2018-08-03T21:33:47.423Z,30.00
2018-08-03T21:36:16.307Z,30.00
2018-08-03T21:38:45.195Z,29.90
2018-08-03T21:41:14.330Z,29.80
2018-08-03T21:43:43.377Z,29.70
2018-08-03T21:46:12.262Z,29.70
2018-08-03T21:48:41.123Z,29.60
2018-08-03T21:51:10.031Z,29.50
2018-08-03T21:53:38.980Z,29.40
2018-08-03T21:56:07.847Z,29.40
2018-08-03T21:58:36.680Z,29.30
2018-08-03T22:01:08.667Z,29.20
2018-08-03T22:03:37.559Z,29.20
2018-08-03T22:06:06.447Z,29.10
2018-08-03T22:08:36.829Z,29.00
2018-08-03T22:11:05.708Z,29.00
2018-08-03T22:13:34.583Z,28.90
2018-08-03T22:16:04.824Z,28.90
2018-08-03T22:18:33.687Z,28.80
2018-08-03T22:21:02.663Z,28.70
2018-08-03T22:23:31.555Z,28.70
2018-08-03T22:26:00.822Z,28.60
2018-08-03T22:28:29.775Z,28.60
2018-08-03T22:30:58.665Z,28.50
2018-08-03T22:35:56.110Z,28.40
2018-08-03T22:38:25.063Z,28.30
2018-08-03T22:40:54.012Z,28.30
2018-08-03T22:43:22.916Z,28.20
2018-08-03T22:45:51.934Z,28.20
2018-08-03T22:48:20.935Z,28.10
2018-08-03T22:50:50.267Z,28.10
2018-08-03T22:53:19.090Z,28.00
2018-08-03T22:55:47.944Z,27.90
2018-08-03T22:58:17.552Z,27.90
2018-08-03T23:00:46.485Z,27.80
2018-08-03T23:03:15.421Z,27.80
2018-08-03T23:05:44.289Z,27.70
2018-08-03T23:08:13.323Z,27.70
2018-08-03T23:10:43.053Z,27.60
2018-08-03T23:13:12.922Z,27.60
2018-08-03T23:15:42.160Z,27.60
2018-08-03T23:18:11.181Z,27.50
2018-08-03T23:20:40.778Z,27.50
2018-08-03T23:23:09.637Z,27.40
2018-08-03T23:25:38.537Z,27.40
2018-08-03T23:30:35.953Z,27.30
2018-08-03T23:33:04.854Z,27.20
2018-08-03T23:35:33.717Z,27.20
2018-08-03T23:38:02.579Z,27.10
2018-08-03T23:40:31.397Z,27.10
2018-08-03T23:43:00.303Z,27.10
2018-08-03T23:45:29.172Z,27.00
2018-08-03T23:47:58.176Z,27.00
2018-08-03T23:53:58.769Z,26.90
2018-08-03T23:56:27.656Z,26.80
2018-08-03T23:58:56.475Z,26.80
